createdAt,value
2023-02-22T00:03:00.042Z,-1.49
2023-02-22T00:06:05.145Z,-1.59
2023-02-22T00:09:09.349Z,-1.71
2023-02-22T00:12:11.253Z,-1.72
2023-02-22T00:15:15.639Z,-1.78
2023-02-22T00:18:19.776Z,-1.93
2023-02-22T00:21:22.279Z,-1.87
2023-02-22T00:24:24.705Z,-1.89
2023-02-22T00:27:26.556Z,-1.95
2023-02-22T00:30:32.005Z,-1.99
2023-02-22T00:33:33.953Z,-2.11
2023-02-22T00:36:35.776Z,-2.07
2023-02-22T00:39:37.696Z,-2.15
2023-02-22T00:42:39.518Z,-2.17
2023-02-22T00:45:41.865Z,-2.25
2023-02-22T00:48:44.642Z,-2.29
2023-02-22T00:51:46.459Z,-2.36
2023-02-22T00:54:48.294Z,-2.64
2023-02-22T00:57:51.310Z,-2.70
2023-02-22T01:00:53.079Z,-2.78
2023-02-22T01:03:55.086Z,-2.63
2023-02-22T01:06:57.148Z,-2.78
2023-02-22T01:10:03.074Z,-2.85
2023-02-22T01:13:09.317Z,-2.85
2023-02-22T01:16:11.544Z,-2.82
2023-02-22T01:19:13.848Z,-2.74
2023-02-22T01:22:15.786Z,-2.70
2023-02-22T01:25:20.836Z,-2.67
2023-02-22T01:28:23.720Z,-2.61
2023-02-22T01:31:25.667Z,-2.67
2023-02-22T01:34:27.782Z,-2.59
2023-02-22T01:37:29.710Z,-2.72
2023-02-22T01:40:35.272Z,-2.70
2023-02-22T01:43:38.754Z,-2.76
2023-02-22T01:46:40.680Z,-2.74
2023-02-22T01:49:48.133Z,-2.75
2023-02-22T01:52:50.545Z,-2.80
2023-02-22T01:55:55.553Z,-2.81
2023-02-22T01:59:01.779Z,-2.70
2023-02-22T02:02:07.483Z,-2.84
2023-02-22T02:05:10.242Z,-2.88
2023-02-22T02:08:36.092Z,-2.96
2023-02-22T02:11:43.164Z,-3.08
2023-02-22T02:14:45.030Z,-3.09
2023-02-22T02:17:49.301Z,-3.10
2023-02-22T02:21:39.153Z,-3.08
2023-02-22T02:25:10.975Z,-3.12
2023-02-22T02:28:34.845Z,-3.27
2023-02-22T02:32:11.980Z,-3.24
2023-02-22T02:35:17.045Z,-3.16
2023-02-22T02:38:40.048Z,-3.16
2023-02-22T02:41:50.800Z,-3.26
2023-02-22T02:44:58.515Z,-3.25
2023-02-22T02:48:05.984Z,-3.31
2023-02-22T02:51:10.912Z,-3.35
2023-02-22T02:54:14.794Z,-3.42
2023-02-22T02:57:16.891Z,-3.38
2023-02-22T03:00:23.179Z,-3.39
2023-02-22T03:03:57.396Z,-3.43
2023-02-22T03:07:13.424Z,-3.53
2023-02-22T03:10:24.773Z,-3.52
2023-02-22T03:13:40.535Z,-3.54
2023-02-22T03:16:56.662Z,-3.62
2023-02-22T03:20:09.804Z,-3.74
2023-02-22T03:23:25.486Z,-3.79
2023-02-22T03:27:12.474Z,-3.82
2023-02-22T03:30:31.894Z,-3.86
2023-02-22T03:33:40.400Z,-3.80
2023-02-22T03:36:56.058Z,-3.88
2023-02-22T03:40:01.040Z,-4.07
2023-02-22T03:43:14.880Z,-4.40
2023-02-22T03:46:19.591Z,-4.59
2023-02-22T03:49:39.471Z,-4.66
2023-02-22T03:52:44.201Z,-4.74
2023-02-22T03:55:55.688Z,-4.84
2023-02-22T03:58:58.095Z,-4.81
2023-02-22T04:02:00.043Z,-4.89
2023-02-22T04:05:02.271Z,-4.91
2023-02-22T04:08:06.509Z,-4.88
2023-02-22T04:11:09.031Z,-4.92
2023-02-22T04:14:11.245Z,-4.94
2023-02-22T04:17:13.137Z,-4.90
2023-02-22T04:20:15.591Z,-4.86
2023-02-22T04:23:40.352Z,-4.74
2023-02-22T04:26:43.210Z,-4.74
2023-02-22T04:29:46.110Z,-4.69
2023-02-22T04:32:48.455Z,-4.64
2023-02-22T04:35:54.209Z,-4.69
2023-02-22T04:38:56.137Z,-4.65
2023-02-22T04:41:58.059Z,-4.70
2023-02-22T04:45:00.355Z,-4.59
2023-02-22T04:48:02.415Z,-4.56
2023-02-22T04:51:04.609Z,-4.54
2023-02-22T04:54:07.404Z,-4.63
2023-02-22T04:57:11.491Z,-4.63
2023-02-22T05:00:17.811Z,-4.58
2023-02-22T05:03:19.908Z,-4.53
2023-02-22T05:06:21.803Z,-4.50
2023-02-22T05:09:23.769Z,-4.55
2023-02-22T05:12:27.725Z,-4.51
2023-02-22T05:15:29.626Z,-4.51
2023-02-22T05:18:31.489Z,-4.54
2023-02-22T05:21:33.624Z,-4.50
2023-02-22T05:24:35.529Z,-4.52
2023-02-22T05:27:37.395Z,-4.40
2023-02-22T05:30:39.947Z,-4.38
2023-02-22T05:33:41.943Z,-4.37
2023-02-22T05:36:43.929Z,-4.51
2023-02-22T05:39:46.590Z,-4.53
2023-02-22T05:42:49.971Z,-4.60
2023-02-22T05:45:51.800Z,-4.62
2023-02-22T05:48:53.665Z,-4.97
2023-02-22T05:51:59.612Z,-5.12
2023-02-22T05:55:01.505Z,-5.12
2023-02-22T05:58:05.969Z,-5.20
2023-02-22T06:01:07.859Z,-5.19
2023-02-22T06:04:09.698Z,-5.21
2023-02-22T06:07:12.110Z,-5.05
2023-02-22T06:10:14.062Z,-4.81
2023-02-22T06:13:16.028Z,-4.93
2023-02-22T06:16:18.159Z,-4.93
2023-02-22T06:19:20.125Z,-4.90
2023-02-22T06:22:21.946Z,-5.00
2023-02-22T06:25:31.265Z,-5.08
2023-02-22T06:28:33.135Z,-5.03
2023-02-22T06:31:35.520Z,-5.03
2023-02-22T06:34:37.386Z,-4.99
2023-02-22T06:37:40.360Z,-4.96
2023-02-22T06:40:42.125Z,-4.92
2023-02-22T06:43:44.036Z,-4.80
2023-02-22T06:46:51.250Z,-4.74
2023-02-22T06:49:54.612Z,-4.63
2023-02-22T06:52:57.400Z,-4.61
2023-02-22T06:55:59.281Z,-4.60
2023-02-22T06:59:02.822Z,-4.43
2023-02-22T07:02:04.826Z,-4.26
2023-02-22T07:05:06.877Z,-4.32
2023-02-22T07:08:08.922Z,-4.16
2023-02-22T07:11:11.964Z,-4.03
2023-02-22T07:14:16.239Z,-3.80
2023-02-22T07:17:18.129Z,-3.46
2023-02-22T07:20:21.119Z,-3.40
2023-02-22T07:23:24.286Z,-3.54
2023-02-22T07:26:27.075Z,-3.53
2023-02-22T07:29:28.960Z,-3.19
2023-02-22T07:32:30.946Z,-3.38
2023-02-22T07:35:38.640Z,-3.36
2023-02-22T07:38:40.841Z,-3.13
2023-02-22T07:41:42.701Z,-3.18
2023-02-22T07:44:57.047Z,-2.99
2023-02-22T07:48:00.618Z,-3.11
2023-02-22T07:51:02.399Z,-3.06
2023-02-22T07:54:04.331Z,-3.02
2023-02-22T07:57:06.086Z,-2.97
2023-02-22T08:00:08.807Z,-2.75
2023-02-22T08:03:17.223Z,-2.48
2023-02-22T08:06:21.039Z,-2.29
2023-02-22T08:09:23.731Z,-2.20
2023-02-22T08:12:26.763Z,-2.47
2023-02-22T08:15:31.792Z,-2.61
2023-02-22T08:18:33.767Z,-2.91
2023-02-22T08:21:35.628Z,-3.07
2023-02-22T08:24:37.534Z,-3.08
2023-02-22T08:27:39.612Z,-3.12
2023-02-22T08:30:44.867Z,-3.33
2023-02-22T08:33:50.105Z,-3.01
2023-02-22T08:36:52.065Z,-2.96
2023-02-22T08:39:56.237Z,-3.12
2023-02-22T08:42:58.899Z,-2.81
2023-02-22T08:46:01.044Z,-2.30
2023-02-22T08:49:03.300Z,-2.29
2023-02-22T08:52:05.400Z,-2.11
2023-02-22T08:55:07.424Z,-2.05
2023-02-22T08:58:09.596Z,-1.77
2023-02-22T09:01:12.118Z,-2.02
2023-02-22T09:04:14.745Z,-2.10
2023-02-22T09:07:17.229Z,-2.14
2023-02-22T09:10:24.573Z,-2.22
2023-02-22T09:13:26.507Z,-2.52
2023-02-22T09:16:29.269Z,-2.77
2023-02-22T09:19:31.262Z,-2.60
2023-02-22T09:22:33.438Z,-2.45
2023-02-22T09:25:35.877Z,-2.64
2023-02-22T09:28:37.803Z,-2.22
2023-02-22T09:31:41.251Z,-1.70
2023-02-22T09:34:45.963Z,-1.49
2023-02-22T09:37:47.964Z,-1.77
2023-02-22T09:40:52.491Z,-1.52
2023-02-22T09:44:22.636Z,-1.35
2023-02-22T09:47:40.356Z,-1.15
2023-02-22T09:50:46.325Z,-1.17
2023-02-22T09:53:52.380Z,-1.01
2023-02-22T09:56:58.419Z,-1.24
2023-02-22T10:00:14.916Z,-1.68
2023-02-22T10:03:39.168Z,-1.55
2023-02-22T10:06:54.962Z,-1.33
2023-02-22T10:09:58.522Z,-0.94
2023-02-22T10:13:09.377Z,-0.97
2023-02-22T10:16:48.525Z,-1.23
2023-02-22T10:20:17.546Z,-1.22
2023-02-22T10:23:44.850Z,-1.38
2023-02-22T10:26:47.202Z,-1.33
2023-02-22T10:30:24.646Z,-1.81
2023-02-22T10:33:32.236Z,-1.94
2023-02-22T10:36:34.604Z,-1.57
2023-02-22T10:39:39.873Z,-1.28
2023-02-22T10:42:41.813Z,-1.39
2023-02-22T10:45:43.704Z,-1.46
2023-02-22T10:48:48.778Z,-1.72
2023-02-22T10:52:01.368Z,-1.65
2023-02-22T10:55:14.975Z,-1.65
2023-02-22T10:58:17.428Z,-2.09
2023-02-22T11:01:32.789Z,-1.85
2023-02-22T11:04:55.449Z,-1.88
2023-02-22T11:08:22.322Z,-1.86
2023-02-22T11:11:26.253Z,-1.84
2023-02-22T11:14:31.075Z,-2.11
2023-02-22T11:17:34.668Z,-1.75
2023-02-22T11:20:39.737Z,-1.49
2023-02-22T11:23:44.937Z,-1.34
2023-02-22T11:26:54.811Z,-1.30
2023-02-22T11:30:11.819Z,-1.46
2023-02-22T11:33:17.027Z,-1.77
2023-02-22T11:36:37.440Z,-1.92
2023-02-22T11:39:43.580Z,-2.26
2023-02-22T11:42:47.008Z,-2.37
2023-02-22T11:46:12.843Z,-2.32
2023-02-22T11:49:18.180Z,-2.13
2023-02-22T11:52:23.021Z,-2.02
2023-02-22T11:55:42.788Z,-2.26
2023-02-22T11:59:29.398Z,-2.36
2023-02-22T12:02:51.793Z,-2.45
2023-02-22T12:06:07.066Z,-2.45
2023-02-22T12:09:14.963Z,-2.58
2023-02-22T12:12:38.561Z,-2.72
2023-02-22T12:15:56.436Z,-2.63
2023-02-22T12:19:13.806Z,-2.55
2023-02-22T12:22:24.270Z,-2.53
2023-02-22T12:25:31.670Z,-2.42
2023-02-22T12:28:53.994Z,-2.32
2023-02-22T12:32:16.412Z,-2.46
2023-02-22T12:35:25.689Z,-2.49
2023-02-22T12:38:39.916Z,-2.54
2023-02-22T12:41:48.504Z,-2.51
2023-02-22T12:45:00.165Z,-2.61
2023-02-22T12:48:39.712Z,-2.66
2023-02-22T12:52:03.094Z,-2.59
2023-02-22T12:55:31.784Z,-2.56
2023-02-22T12:58:45.227Z,-2.51
2023-02-22T13:01:55.230Z,-2.56
2023-02-22T13:04:57.521Z,-2.52
2023-02-22T13:08:40.715Z,-2.56
2023-02-22T13:12:07.042Z,-2.63
2023-02-22T13:15:18.054Z,-2.65
2023-02-22T13:18:33.187Z,-2.71
2023-02-22T13:21:43.766Z,-2.74
2023-02-22T13:24:56.751Z,-2.84
2023-02-22T13:28:13.763Z,-3.10
2023-02-22T13:31:47.548Z,-3.24
2023-02-22T13:34:56.009Z,-3.25
2023-02-22T13:38:08.303Z,-3.33
2023-02-22T13:41:28.511Z,-3.34
2023-02-22T13:45:08.022Z,-3.44
2023-02-22T13:48:12.874Z,-3.57
2023-02-22T13:51:36.578Z,-3.51
2023-02-22T13:54:46.705Z,-3.59
2023-02-22T13:57:51.813Z,-3.62
2023-02-22T14:00:58.027Z,-3.69
2023-02-22T14:04:27.834Z,-3.74
2023-02-22T14:07:33.820Z,-3.85
2023-02-22T14:10:39.904Z,-3.92
2023-02-22T14:13:55.755Z,-3.95
2023-02-22T14:17:20.806Z,-3.93
2023-02-22T14:20:30.435Z,-4.16
2023-02-22T14:23:52.203Z,-4.17
2023-02-22T14:27:14.021Z,-4.16
2023-02-22T14:30:26.515Z,-4.44
2023-02-22T14:33:52.466Z,-4.28
2023-02-22T14:37:05.366Z,-4.24
2023-02-22T14:40:21.898Z,-4.15
2023-02-22T14:43:25.506Z,-4.28
2023-02-22T14:46:33.122Z,-4.30
2023-02-22T14:49:41.486Z,-4.44
2023-02-22T14:52:46.707Z,-4.48
2023-02-22T14:56:15.559Z,-4.71
2023-02-22T14:59:17.502Z,-4.78
2023-02-22T15:02:22.770Z,-4.92
2023-02-22T15:05:30.373Z,-4.93
2023-02-22T15:08:34.279Z,-4.92
2023-02-22T15:11:36.279Z,-4.97
2023-02-22T15:14:39.052Z,-5.05
2023-02-22T15:17:41.332Z,-5.17
2023-02-22T15:20:43.299Z,-5.22
2023-02-22T15:23:51.374Z,-5.21
2023-02-22T15:27:01.952Z,-5.19
2023-02-22T15:30:29.843Z,-5.36
2023-02-22T15:33:38.153Z,-5.34
2023-02-22T15:36:44.393Z,-5.40
2023-02-22T15:39:46.267Z,-5.55
2023-02-22T15:42:53.101Z,-5.49
2023-02-22T15:45:56.206Z,-5.58
2023-02-22T15:49:10.190Z,-5.60
2023-02-22T15:52:26.023Z,-5.64
2023-02-22T15:55:29.892Z,-5.63
2023-02-22T15:58:31.935Z,-5.73
2023-02-22T16:01:40.708Z,-5.74
2023-02-22T16:04:51.376Z,-5.79
2023-02-22T16:08:00.007Z,-5.75
2023-02-22T16:11:13.600Z,-5.75
2023-02-22T16:14:28.790Z,-5.79
2023-02-22T16:17:39.861Z,-5.85
2023-02-22T16:20:44.640Z,-5.90
2023-02-22T16:23:57.399Z,-5.98
2023-02-22T16:27:05.883Z,-5.99
2023-02-22T16:30:24.436Z,-6.15
2023-02-22T16:33:32.182Z,-6.12
2023-02-22T16:36:45.297Z,-6.05
2023-02-22T16:39:47.096Z,-6.18
2023-02-22T16:42:51.490Z,-6.13
2023-02-22T16:45:53.432Z,-6.20
2023-02-22T16:48:55.311Z,-6.17
2023-02-22T16:52:01.632Z,-6.22
2023-02-22T16:55:05.233Z,-6.26
2023-02-22T16:58:07.307Z,-6.35
2023-02-22T17:01:09.668Z,-6.24
2023-02-22T17:04:20.448Z,-6.24
2023-02-22T17:07:30.851Z,-6.24
2023-02-22T17:10:34.189Z,-6.26
2023-02-22T17:13:36.121Z,-6.31
2023-02-22T17:16:37.905Z,-6.35
2023-02-22T17:19:39.865Z,-6.33
2023-02-22T17:22:43.078Z,-6.37
2023-02-22T17:25:51.143Z,-6.35
2023-02-22T17:28:52.939Z,-6.36
2023-02-22T17:31:55.166Z,-6.33
2023-02-22T17:34:57.013Z,-6.46
2023-02-22T17:38:00.864Z,-6.42
2023-02-22T17:41:03.444Z,-6.44
2023-02-22T17:44:05.698Z,-6.44
2023-02-22T17:47:07.915Z,-6.44
2023-02-22T17:50:11.889Z,-6.51
2023-02-22T17:53:14.491Z,-6.55
2023-02-22T17:56:19.346Z,-6.64
2023-02-22T17:59:22.530Z,-6.62
2023-02-22T18:02:24.499Z,-6.70
2023-02-22T18:05:26.809Z,-6.65
2023-02-22T18:08:31.178Z,-6.71
2023-02-22T18:11:33.009Z,-6.69
2023-02-22T18:14:34.865Z,-6.68
2023-02-22T18:17:37.992Z,-6.70
2023-02-22T18:20:44.675Z,-6.69
2023-02-22T18:23:46.482Z,-6.71
2023-02-22T18:26:48.444Z,-6.70
2023-02-22T18:29:50.330Z,-6.70
2023-02-22T18:32:52.286Z,-6.74
2023-02-22T18:35:55.259Z,-6.75
2023-02-22T18:38:57.036Z,-6.92
2023-02-22T18:41:58.850Z,-6.94
2023-02-22T18:45:03.345Z,-6.97
2023-02-22T18:48:05.246Z,-6.97
2023-02-22T18:51:10.342Z,-6.99
2023-02-22T18:54:13.254Z,-7.03
2023-02-22T18:57:15.330Z,-7.11
2023-02-22T19:00:24.253Z,-7.10
2023-02-22T19:03:26.611Z,-7.15
2023-02-22T19:06:28.897Z,-7.22
2023-02-22T19:09:31.204Z,-7.28
2023-02-22T19:12:33.877Z,-7.31
2023-02-22T19:15:35.740Z,-7.39
2023-02-22T19:18:37.834Z,-7.38
2023-02-22T19:21:39.886Z,-7.44
2023-02-22T19:24:45.444Z,-7.44
2023-02-22T19:27:47.252Z,-7.47
2023-02-22T19:30:49.204Z,-7.53
2023-02-22T19:33:53.795Z,-7.55
2023-02-22T19:36:56.135Z,-7.53
2023-02-22T19:39:58.019Z,-7.70
2023-02-22T19:42:59.954Z,-7.64
2023-02-22T19:46:06.725Z,-7.75
2023-02-22T19:49:08.771Z,-7.78
2023-02-22T19:52:10.855Z,-7.84
2023-02-22T19:55:13.033Z,-7.87
2023-02-22T19:58:15.518Z,-7.85
2023-02-22T20:01:23.240Z,-7.93
2023-02-22T20:04:25.864Z,-7.97
2023-02-22T20:07:27.884Z,-8.05
2023-02-22T20:10:29.865Z,-8.02
2023-02-22T20:13:31.875Z,-7.99
2023-02-22T20:16:35.485Z,-8.01
2023-02-22T20:19:38.825Z,-8.00
2023-02-22T20:22:40.784Z,-8.02
2023-02-22T20:25:42.880Z,-8.01
2023-02-22T20:28:45.298Z,-8.05
2023-02-22T20:31:52.560Z,-8.12
2023-02-22T20:34:54.517Z,-8.06
2023-02-22T20:37:56.385Z,-8.05
2023-02-22T20:40:58.287Z,-8.00
2023-02-22T20:44:01.715Z,-8.00
2023-02-22T20:47:04.079Z,-8.01
2023-02-22T20:50:07.425Z,-8.05
2023-02-22T20:53:09.291Z,-8.07
2023-02-22T20:56:16.148Z,-8.12
2023-02-22T20:59:19.322Z,-8.13
2023-02-22T21:02:21.330Z,-8.27
2023-02-22T21:05:23.213Z,-8.26
2023-02-22T21:08:25.098Z,-8.23
2023-02-22T21:11:30.673Z,-8.31
2023-02-22T21:14:32.711Z,-8.33
2023-02-22T21:17:36.483Z,-8.32
2023-02-22T21:20:41.220Z,-8.33
2023-02-22T21:23:43.366Z,-8.30
2023-02-22T21:26:45.293Z,-8.32
2023-02-22T21:29:47.233Z,-8.32
2023-02-22T21:32:54.029Z,-8.32
2023-02-22T21:35:55.926Z,-8.35
2023-02-22T21:39:00.393Z,-8.34
2023-02-22T21:42:02.781Z,-8.37
2023-02-22T21:45:05.008Z,-8.40
2023-02-22T21:48:06.874Z,-8.49
2023-02-22T21:51:14.102Z,-8.44
2023-02-22T21:54:16.946Z,-8.44
2023-02-22T21:57:18.905Z,-8.46
2023-02-22T22:00:29.259Z,-8.49
2023-02-22T22:03:31.293Z,-8.53
2023-02-22T22:06:35.738Z,-8.51
2023-02-22T22:09:41.351Z,-8.53
2023-02-22T22:12:46.236Z,-8.59
2023-02-22T22:15:48.713Z,-8.53
2023-02-22T22:18:50.569Z,-8.63
2023-02-22T22:21:54.111Z,-8.63
2023-02-22T22:24:56.433Z,-8.59
2023-02-22T22:27:58.562Z,-8.60
2023-02-22T22:31:00.479Z,-8.64
2023-02-22T22:34:02.821Z,-8.67
2023-02-22T22:37:04.665Z,-8.71
2023-02-22T22:40:10.686Z,-8.72
2023-02-22T22:43:12.566Z,-8.77
2023-02-22T22:46:16.737Z,-8.86
2023-02-22T22:49:20.535Z,-8.91
2023-02-22T22:52:24.350Z,-9.00
2023-02-22T22:55:26.250Z,-8.99
2023-02-22T22:58:28.139Z,-8.94
2023-02-22T23:01:33.308Z,-8.97
2023-02-22T23:04:36.903Z,-9.01
2023-02-22T23:07:38.780Z,-8.97
2023-02-22T23:10:41.333Z,-8.98
2023-02-22T23:13:43.217Z,-9.16
2023-02-22T23:16:46.274Z,-9.11
2023-02-22T23:19:48.197Z,-9.09
2023-02-22T23:22:50.011Z,-9.11
2023-02-22T23:26:18.855Z,-9.12
2023-02-22T23:29:22.938Z,-9.13
2023-02-22T23:32:26.899Z,-9.11
2023-02-22T23:35:28.866Z,-9.06
2023-02-22T23:38:31.719Z,-9.12
2023-02-22T23:41:36.476Z,-9.07
2023-02-22T23:44:39.891Z,-9.09
2023-02-22T23:47:43.691Z,-9.10
2023-02-22T23:50:46.589Z,-9.15
2023-02-22T23:53:49.551Z,-9.22
2023-02-22T23:56:57.831Z,-9.21
